createdAt,value
2024-05-09T00:01:30.334Z,102908.63
2024-05-09T00:06:35.164Z,102907.72
2024-05-09T00:11:42.743Z,102910.25
2024-05-09T00:16:48.515Z,102904.88
2024-05-09T00:21:53.514Z,102913.59
2024-05-09T00:27:00.990Z,102896.69
2024-05-09T00:32:09.586Z,102900.94
2024-05-09T00:37:14.323Z,102895.47
2024-05-09T00:42:21.644Z,102888.16
2024-05-09T00:47:26.760Z,102893.13
2024-05-09T00:52:32.689Z,102895.44
2024-05-09T00:57:40.611Z,102887.22
2024-05-09T01:02:45.384Z,102889.66
2024-05-09T01:07:50.291Z,102886.72
2024-05-09T01:12:58.049Z,102888.13
2024-05-09T01:18:04.482Z,102882.53
2024-05-09T01:23:12.638Z,102881.25
2024-05-09T01:28:18.204Z,102880.03
2024-05-09T01:33:23.121Z,102880.53
2024-05-09T01:38:30.741Z,102878.47
2024-05-09T01:43:35.579Z,102876.34
2024-05-09T01:48:40.350Z,102877.72
2024-05-09T01:53:48.346Z,102879.03
2024-05-09T01:58:53.073Z,102876.19
2024-05-09T02:04:00.905Z,102874.97
2024-05-09T02:09:08.322Z,102875.75
2024-05-09T02:14:13.444Z,102876.31
2024-05-09T02:19:18.536Z,102874.19
2024-05-09T02:24:26.233Z,102870.22
2024-05-09T02:29:31.141Z,102870.78
2024-05-09T02:34:36.003Z,102874.91
2024-05-09T02:39:43.460Z,102868.31
2024-05-09T02:44:48.281Z,102869.69
2024-05-09T02:49:53.096Z,102864.00
2024-05-09T02:55:00.494Z,102870.88
2024-05-09T03:00:07.635Z,102859.22
2024-05-09T03:05:12.899Z,102863.31
2024-05-09T03:10:25.560Z,102855.13
2024-05-09T03:15:33.652Z,102859.22
2024-05-09T03:20:39.236Z,102864.25
2024-05-09T03:25:46.946Z,102857.78
2024-05-09T03:30:52.121Z,102848.53
2024-05-09T03:35:56.870Z,102855.38
2024-05-09T03:41:04.252Z,102848.66
2024-05-09T03:46:09.064Z,102850.03
2024-05-09T03:51:13.911Z,102853.34
2024-05-09T03:56:21.389Z,102853.91
2024-05-09T04:01:26.794Z,102859.03
2024-05-09T04:06:31.751Z,102855.38
2024-05-09T04:11:39.259Z,102861.53
2024-05-09T04:16:44.471Z,102858.91
2024-05-09T04:21:49.316Z,102857.09
2024-05-09T04:26:56.766Z,102864.16
2024-05-09T04:32:01.672Z,102863.38
2024-05-09T04:37:07.250Z,102866.22
2024-05-09T04:42:14.808Z,102873.28
2024-05-09T04:47:19.775Z,102876.59
2024-05-09T04:52:25.132Z,102877.28
2024-05-09T04:57:32.623Z,102874.88
2024-05-09T05:02:37.601Z,102885.72
2024-05-09T05:07:42.694Z,102885.25
2024-05-09T05:13:23.298Z,102892.66
2024-05-09T05:18:39.037Z,102893.44
2024-05-09T05:23:53.762Z,102891.41
2024-05-09T05:29:12.154Z,102898.34
2024-05-09T05:34:26.290Z,102893.56
2024-05-09T05:39:41.995Z,102906.53
2024-05-09T05:45:00.771Z,102905.28
2024-05-09T05:50:27.487Z,102904.81
2024-05-09T05:55:54.768Z,102905.44
2024-05-09T06:01:14.532Z,102901.75
2024-05-09T06:06:31.833Z,102904.13
2024-05-09T06:11:52.063Z,102898.94
2024-05-09T06:17:13.280Z,102902.75
2024-05-09T06:22:30.037Z,102890.78
2024-05-09T06:27:44.686Z,102890.00
2024-05-09T06:33:02.197Z,102891.72
2024-05-09T06:38:18.628Z,102888.09
2024-05-09T06:43:39.480Z,102890.13
2024-05-09T06:49:00.237Z,102888.59
2024-05-09T06:54:17.936Z,102878.56
2024-05-09T06:59:33.982Z,102893.38
2024-05-09T07:04:56.102Z,102889.50
2024-05-09T07:10:21.572Z,102878.66
2024-05-09T07:15:42.132Z,102879.47
2024-05-09T07:21:03.132Z,102872.59
2024-05-09T07:26:18.411Z,102867.75
2024-05-09T07:31:35.002Z,102881.72
2024-05-09T07:36:56.109Z,102876.19
2024-05-09T07:42:11.531Z,102867.63
2024-05-09T07:48:57.201Z,102870.75
2024-05-09T07:53:36.618Z,102866.63
2024-05-09T07:58:44.004Z,102870.56
2024-05-09T08:04:00.691Z,102875.50
2024-05-09T08:09:22.139Z,102871.06
2024-05-09T08:14:45.425Z,102863.25
2024-05-09T08:19:59.159Z,102848.38
2024-05-09T08:25:21.112Z,102853.97
2024-05-09T08:30:38.209Z,102854.13
2024-05-09T08:35:52.678Z,102846.91
2024-05-09T08:41:14.081Z,102846.47
2024-05-09T08:46:39.807Z,102853.22
2024-05-09T08:51:55.551Z,102850.06
2024-05-09T08:57:18.767Z,102845.72
2024-05-09T09:02:34.653Z,102850.53
2024-05-09T09:07:53.650Z,102846.13
2024-05-09T09:13:17.476Z,102835.94
2024-05-09T09:18:35.248Z,102841.63
2024-05-09T09:23:54.576Z,102846.06
2024-05-09T09:29:15.007Z,102823.84
2024-05-09T09:34:35.588Z,102818.31
2024-05-09T09:39:48.971Z,102811.94
2024-05-09T09:45:04.945Z,102817.28
2024-05-09T09:50:16.790Z,102818.44
2024-05-09T09:55:26.340Z,102813.06
2024-05-09T10:00:35.024Z,102804.34
2024-05-09T10:05:42.199Z,102804.78
2024-05-09T10:10:50.131Z,102803.41
2024-05-09T10:15:58.055Z,102801.75
2024-05-09T10:21:02.889Z,102790.56
2024-05-09T10:26:07.892Z,102786.13
2024-05-09T10:31:18.196Z,102794.38
2024-05-09T10:36:24.664Z,102789.91
2024-05-09T10:41:29.477Z,102786.56
2024-05-09T10:46:36.978Z,102780.28
2024-05-09T10:51:42.246Z,102771.41
2024-05-09T10:56:47.153Z,102769.53
2024-05-09T11:01:55.183Z,102764.16
2024-05-09T11:07:04.560Z,102764.19
2024-05-09T11:12:10.901Z,102746.28
2024-05-09T11:17:18.464Z,102747.19
2024-05-09T11:22:25.225Z,102739.09
2024-05-09T11:27:30.096Z,102747.19
2024-05-09T11:32:40.498Z,102737.28
2024-05-09T11:37:45.367Z,102737.31
2024-05-09T11:42:52.961Z,102731.03
2024-05-09T11:48:00.962Z,102723.84
2024-05-09T11:53:05.843Z,102713.03
2024-05-09T11:58:12.540Z,102708.59
2024-05-09T12:03:20.844Z,102706.81
2024-05-09T12:08:25.993Z,102710.31
2024-05-09T12:13:31.036Z,102707.63
2024-05-09T12:18:38.498Z,102700.44
2024-05-09T12:23:43.421Z,102698.59
2024-05-09T12:28:48.262Z,102700.41
2024-05-09T12:33:56.034Z,102697.56
2024-05-09T12:39:01.046Z,102684.28
2024-05-09T12:44:05.858Z,102677.78
2024-05-09T12:49:17.254Z,102674.19
2024-05-09T12:54:22.944Z,102681.22
2024-05-09T12:59:27.893Z,102671.59
2024-05-09T13:04:35.526Z,102662.03
2024-05-09T13:09:40.677Z,102666.47
2024-05-09T13:14:45.469Z,102660.13
2024-05-09T13:19:53.027Z,102659.16
2024-05-09T13:24:57.749Z,102659.03
2024-05-09T13:30:02.484Z,102667.97
2024-05-09T13:35:10.919Z,102657.97
2024-05-09T13:40:23.265Z,102657.84
2024-05-09T13:45:32.266Z,102652.94
2024-05-09T13:50:39.858Z,102649.28
2024-05-09T13:55:44.566Z,102656.31
2024-05-09T14:00:50.620Z,102652.22
2024-05-09T14:05:58.764Z,102650.69
2024-05-09T14:11:03.715Z,102645.53
2024-05-09T14:16:09.677Z,102631.25
2024-05-09T14:21:17.199Z,102628.16
2024-05-09T14:26:22.036Z,102639.88
2024-05-09T14:31:27.028Z,102625.81
2024-05-09T14:36:35.655Z,102616.69
2024-05-09T14:41:41.579Z,102613.38
2024-05-09T14:46:46.533Z,102614.31
2024-05-09T14:51:54.100Z,102604.31
2024-05-09T14:56:59.011Z,102603.41
2024-05-09T15:02:03.988Z,102597.88
2024-05-09T15:08:02.564Z,102588.91
2024-05-09T15:13:29.122Z,102583.41
2024-05-09T15:18:34.260Z,102581.13
2024-05-09T15:23:39.325Z,102572.97
2024-05-09T15:28:46.740Z,102571.50
2024-05-09T15:33:51.764Z,102575.94
2024-05-09T15:38:58.062Z,102571.78
2024-05-09T15:44:05.579Z,102572.88
2024-05-09T15:49:12.047Z,102564.16
2024-05-09T15:54:16.966Z,102553.44
2024-05-09T15:59:24.473Z,102561.06
2024-05-09T16:04:29.578Z,102557.94
2024-05-09T16:09:34.587Z,102544.69
2024-05-09T16:14:42.195Z,102537.66
2024-05-09T16:19:47.183Z,102534.22
2024-05-09T16:24:52.037Z,102534.09
2024-05-09T16:30:04.139Z,102539.91
2024-05-09T16:35:11.565Z,102534.75
2024-05-09T16:40:25.304Z,102521.38
2024-05-09T16:45:44.103Z,102534.56
2024-05-09T16:50:49.049Z,102526.28
2024-05-09T16:55:54.758Z,102525.09
2024-05-09T17:01:02.295Z,102521.69
2024-05-09T17:06:07.273Z,102517.34
2024-05-09T17:11:13.299Z,102508.41
2024-05-09T17:16:21.079Z,102517.50
2024-05-09T17:21:26.259Z,102509.28
2024-05-09T17:26:32.504Z,102521.53
2024-05-09T17:31:39.908Z,102516.94
2024-05-09T17:36:45.012Z,102517.59
2024-05-09T17:41:49.794Z,102509.53
2024-05-09T17:47:02.499Z,102510.41
2024-05-09T17:58:49.219Z,102499.78
2024-05-09T18:03:56.837Z,102498.44
2024-05-09T18:09:01.674Z,102504.13
2024-05-09T18:14:06.778Z,102505.34
2024-05-09T18:19:17.594Z,102513.84
2024-05-09T18:24:23.074Z,102502.63
2024-05-09T18:29:28.000Z,102508.38
2024-05-09T18:34:35.582Z,102496.34
2024-05-09T18:45:46.078Z,102504.44
2024-05-09T18:50:54.242Z,102516.56
2024-05-09T18:55:59.415Z,102515.38
2024-05-09T19:01:04.611Z,102513.38
2024-05-09T19:06:12.130Z,102506.91
2024-05-09T19:11:16.964Z,102509.28
2024-05-09T19:16:25.085Z,102503.56
2024-05-09T19:21:32.857Z,102515.63
2024-05-09T19:26:37.912Z,102505.50
2024-05-09T19:31:45.456Z,102499.06
2024-05-09T19:36:53.031Z,102510.47
2024-05-09T19:41:57.872Z,102513.78
2024-05-09T19:47:02.605Z,102521.38
2024-05-09T19:52:10.414Z,102514.03
2024-05-09T19:57:15.533Z,102513.00
2024-05-09T20:02:20.915Z,102519.00
2024-05-09T20:07:28.564Z,102512.41
2024-05-09T20:12:33.374Z,102519.00
2024-05-09T20:17:38.158Z,102522.81
2024-05-09T20:22:45.755Z,102531.88
2024-05-09T20:27:50.544Z,102527.81
2024-05-09T20:32:55.430Z,102532.59
2024-05-09T20:38:05.949Z,102541.94
2024-05-09T20:43:11.812Z,102537.97
2024-05-09T20:48:17.027Z,102541.97
2024-05-09T20:53:24.595Z,102552.03
2024-05-09T20:58:30.663Z,102548.00
2024-05-09T21:03:38.219Z,102547.25
2024-05-09T21:08:45.783Z,102547.34
2024-05-09T21:13:50.536Z,102540.44
2024-05-09T21:18:55.349Z,102541.75
2024-05-09T21:24:02.892Z,102550.19
2024-05-09T21:29:07.670Z,102545.31
2024-05-09T21:34:12.670Z,102540.50
2024-05-09T21:39:20.070Z,102533.28
2024-05-09T21:44:24.905Z,102534.84
2024-05-09T21:49:29.822Z,102536.34
2024-05-09T21:54:37.396Z,102533.69
2024-05-09T21:59:42.565Z,102543.31
2024-05-09T22:04:47.785Z,102539.56
2024-05-09T22:09:55.297Z,102528.84
2024-05-09T22:15:03.303Z,102527.94
2024-05-09T22:20:17.906Z,102537.59
2024-05-09T22:25:31.088Z,102530.53
2024-05-09T22:30:39.436Z,102535.81
2024-05-09T22:35:45.402Z,102530.34
2024-05-09T22:40:53.244Z,102528.47
2024-05-09T22:45:58.111Z,102531.13
2024-05-09T22:51:02.850Z,102538.97
2024-05-09T22:56:10.940Z,102544.13
2024-05-09T23:01:17.886Z,102531.59
2024-05-09T23:06:22.776Z,102537.72
2024-05-09T23:11:30.262Z,102537.53
2024-05-09T23:16:35.112Z,102534.69
2024-05-09T23:21:41.519Z,102537.19
2024-05-09T23:26:48.951Z,102526.31
2024-05-09T23:31:53.879Z,102526.22
2024-05-09T23:36:58.669Z,102513.75
2024-05-09T23:42:06.774Z,102522.41
2024-05-09T23:47:11.671Z,102520.00
2024-05-09T23:52:16.646Z,102522.91
2024-05-09T23:57:24.489Z,102526.53
